sensor_id;sensor_type;location;lat;lon;timestamp;P1;durP1;ratioP1;P2;durP2;ratioP2
9597;SDS011;4837;50.890;4.724;2023-03-11T00:00:47;19.27;;;9.73;;
9597;SDS011;4837;50.890;4.724;2023-03-11T00:03:15;19.13;;;9.80;;
9597;SDS011;4837;50.890;4.724;2023-03-11T00:05:42;17.53;;;10.03;;
9597;SDS011;4837;50.890;4.724;2023-03-11T00:08:10;16.17;;;8.73;;
9597;SDS011;4837;50.890;4.724;2023-03-11T00:10:38;15.43;;;7.13;;
9597;SDS011;4837;50.890;4.724;2023-03-11T00:13:05;12.40;;;6.77;;
9597;SDS011;4837;50.890;4.724;2023-03-11T00:15:32;11.53;;;5.90;;
9597;SDS011;4837;50.890;4.724;2023-03-11T00:17:59;14.33;;;5.60;;
9597;SDS011;4837;50.890;4.724;2023-03-11T00:20:29;11.90;;;5.27;;
9597;SDS011;4837;50.890;4.724;2023-03-11T00:22:56;11.23;;;5.37;;
9597;SDS011;4837;50.890;4.724;2023-03-11T00:25:22;10.97;;;4.17;;
9597;SDS011;4837;50.890;4.724;2023-03-11T00:27:49;13.37;;;4.23;;
9597;SDS011;4837;50.890;4.724;2023-03-11T00:30:16;8.37;;;3.73;;
9597;SDS011;4837;50.890;4.724;2023-03-11T00:32:43;10.00;;;3.33;;
9597;SDS011;4837;50.890;4.724;2023-03-11T00:35:13;11.20;;;3.47;;
9597;SDS011;4837;50.890;4.724;2023-03-11T00:37:40;9.27;;;3.30;;
9597;SDS011;4837;50.890;4.724;2023-03-11T00:40:10;8.63;;;3.03;;
9597;SDS011;4837;50.890;4.724;2023-03-11T00:42:37;8.10;;;3.17;;
9597;SDS011;4837;50.890;4.724;2023-03-11T00:45:03;9.13;;;3.40;;
9597;SDS011;4837;50.890;4.724;2023-03-11T00:47:29;7.70;;;3.13;;
9597;SDS011;4837;50.890;4.724;2023-03-11T00:49:55;6.30;;;3.13;;
9597;SDS011;4837;50.890;4.724;2023-03-11T00:52:21;7.73;;;3.40;;
9597;SDS011;4837;50.890;4.724;2023-03-11T00:54:47;8.00;;;3.60;;
9597;SDS011;4837;50.890;4.724;2023-03-11T00:57:13;5.37;;;3.10;;
9597;SDS011;4837;50.890;4.724;2023-03-11T00:59:40;4.93;;;2.87;;
9597;SDS011;4837;50.890;4.724;2023-03-11T01:02:06;7.23;;;3.50;;
9597;SDS011;4837;50.890;4.724;2023-03-11T01:04:32;5.83;;;3.60;;
9597;SDS011;4837;50.890;4.724;2023-03-11T01:06:58;8.63;;;3.50;;
9597;SDS011;4837;50.890;4.724;2023-03-11T01:09:24;6.83;;;3.50;;
9597;SDS011;4837;50.890;4.724;2023-03-11T01:11:50;9.57;;;3.20;;
9597;SDS011;4837;50.890;4.724;2023-03-11T01:14:17;7.37;;;3.53;;
9597;SDS011;4837;50.890;4.724;2023-03-11T01:16:43;5.23;;;2.93;;
9597;SDS011;4837;50.890;4.724;2023-03-11T01:19:10;9.93;;;3.50;;
9597;SDS011;4837;50.890;4.724;2023-03-11T01:21:36;10.17;;;3.43;;
9597;SDS011;4837;50.890;4.724;2023-03-11T01:24:02;8.63;;;3.70;;
9597;SDS011;4837;50.890;4.724;2023-03-11T01:26:29;7.27;;;3.40;;
9597;SDS011;4837;50.890;4.724;2023-03-11T01:28:55;10.80;;;3.40;;
9597;SDS011;4837;50.890;4.724;2023-03-11T01:31:21;9.93;;;3.20;;
9597;SDS011;4837;50.890;4.724;2023-03-11T01:33:47;8.57;;;3.43;;
9597;SDS011;4837;50.890;4.724;2023-03-11T01:36:13;9.27;;;3.50;;
9597;SDS011;4837;50.890;4.724;2023-03-11T01:38:39;13.57;;;3.70;;
9597;SDS011;4837;50.890;4.724;2023-03-11T01:41:05;8.20;;;3.13;;
9597;SDS011;4837;50.890;4.724;2023-03-11T01:48:27;5.90;;;3.10;;
9597;SDS011;4837;50.890;4.724;2023-03-11T01:50:54;8.23;;;3.30;;
9597;SDS011;4837;50.890;4.724;2023-03-11T01:53:21;8.53;;;3.30;;
9597;SDS011;4837;50.890;4.724;2023-03-11T01:55:47;9.00;;;3.37;;
9597;SDS011;4837;50.890;4.724;2023-03-11T01:58:15;10.00;;;3.00;;
9597;SDS011;4837;50.890;4.724;2023-03-11T02:00:42;8.57;;;2.70;;
9597;SDS011;4837;50.890;4.724;2023-03-11T02:03:10;7.40;;;3.30;;
9597;SDS011;4837;50.890;4.724;2023-03-11T02:05:39;9.93;;;3.20;;
9597;SDS011;4837;50.890;4.724;2023-03-11T02:08:05;10.43;;;3.37;;
9597;SDS011;4837;50.890;4.724;2023-03-11T02:10:32;8.13;;;3.07;;
9597;SDS011;4837;50.890;4.724;2023-03-11T02:12:58;6.03;;;2.83;;
9597;SDS011;4837;50.890;4.724;2023-03-11T02:15:24;8.00;;;3.10;;
9597;SDS011;4837;50.890;4.724;2023-03-11T02:17:51;7.97;;;2.67;;
9597;SDS011;4837;50.890;4.724;2023-03-11T02:22:43;7.83;;;2.83;;
9597;SDS011;4837;50.890;4.724;2023-03-11T02:27:55;14.20;;;3.20;;
9597;SDS011;4837;50.890;4.724;2023-03-11T02:30:21;7.73;;;2.63;;
9597;SDS011;4837;50.890;4.724;2023-03-11T02:32:48;9.70;;;3.00;;
9597;SDS011;4837;50.890;4.724;2023-03-11T02:35:15;7.17;;;3.20;;
9597;SDS011;4837;50.890;4.724;2023-03-11T02:37:48;7.63;;;2.90;;
9597;SDS011;4837;50.890;4.724;2023-03-11T02:42:47;6.50;;;2.80;;
9597;SDS011;4837;50.890;4.724;2023-03-11T02:45:13;7.90;;;3.40;;
9597;SDS011;4837;50.890;4.724;2023-03-11T02:47:41;5.57;;;2.93;;
9597;SDS011;4837;50.890;4.724;2023-03-11T02:50:08;8.33;;;3.20;;
9597;SDS011;4837;50.890;4.724;2023-03-11T02:52:35;7.33;;;2.40;;
9597;SDS011;4837;50.890;4.724;2023-03-11T02:55:01;10.40;;;2.73;;
9597;SDS011;4837;50.890;4.724;2023-03-11T02:57:27;4.97;;;2.93;;
9597;SDS011;4837;50.890;4.724;2023-03-11T02:59:53;6.83;;;3.10;;
9597;SDS011;4837;50.890;4.724;2023-03-11T03:02:20;5.57;;;2.77;;
9597;SDS011;4837;50.890;4.724;2023-03-11T03:04:46;11.40;;;2.83;;
9597;SDS011;4837;50.890;4.724;2023-03-11T03:07:12;6.90;;;2.70;;
9597;SDS011;4837;50.890;4.724;2023-03-11T03:09:38;8.23;;;2.93;;
9597;SDS011;4837;50.890;4.724;2023-03-11T03:12:04;6.97;;;2.60;;
9597;SDS011;4837;50.890;4.724;2023-03-11T03:14:30;7.63;;;3.10;;
9597;SDS011;4837;50.890;4.724;2023-03-11T03:16:56;6.67;;;2.70;;
9597;SDS011;4837;50.890;4.724;2023-03-11T03:19:23;6.87;;;3.00;;
9597;SDS011;4837;50.890;4.724;2023-03-11T03:21:49;7.57;;;3.40;;
9597;SDS011;4837;50.890;4.724;2023-03-11T03:24:15;7.67;;;3.53;;
9597;SDS011;4837;50.890;4.724;2023-03-11T03:26:41;7.87;;;3.33;;
9597;SDS011;4837;50.890;4.724;2023-03-11T03:29:07;8.23;;;3.27;;
9597;SDS011;4837;50.890;4.724;2023-03-11T03:31:33;8.00;;;2.73;;
9597;SDS011;4837;50.890;4.724;2023-03-11T03:33:59;6.40;;;3.13;;
9597;SDS011;4837;50.890;4.724;2023-03-11T03:36:25;9.67;;;3.63;;
9597;SDS011;4837;50.890;4.724;2023-03-11T03:38:52;9.50;;;3.33;;
9597;SDS011;4837;50.890;4.724;2023-03-11T03:41:18;7.97;;;3.23;;
9597;SDS011;4837;50.890;4.724;2023-03-11T03:43:45;5.87;;;3.57;;
9597;SDS011;4837;50.890;4.724;2023-03-11T03:46:11;9.63;;;3.10;;
9597;SDS011;4837;50.890;4.724;2023-03-11T03:48:37;8.73;;;3.07;;
9597;SDS011;4837;50.890;4.724;2023-03-11T03:51:03;5.60;;;3.10;;
9597;SDS011;4837;50.890;4.724;2023-03-11T03:53:30;5.63;;;3.00;;
9597;SDS011;4837;50.890;4.724;2023-03-11T03:56:00;11.00;;;3.17;;
9597;SDS011;4837;50.890;4.724;2023-03-11T03:58:26;6.20;;;3.17;;
9597;SDS011;4837;50.890;4.724;2023-03-11T04:00:56;7.73;;;3.10;;
9597;SDS011;4837;50.890;4.724;2023-03-11T04:03:23;8.40;;;3.27;;
9597;SDS011;4837;50.890;4.724;2023-03-11T04:05:49;7.97;;;3.13;;
9597;SDS011;4837;50.890;4.724;2023-03-11T04:08:15;9.07;;;3.47;;
9597;SDS011;4837;50.890;4.724;2023-03-11T04:10:41;8.27;;;3.00;;
9597;SDS011;4837;50.890;4.724;2023-03-11T04:13:07;5.93;;;3.20;;
9597;SDS011;4837;50.890;4.724;2023-03-11T04:15:33;6.80;;;2.70;;
9597;SDS011;4837;50.890;4.724;2023-03-11T04:17:59;6.37;;;3.23;;
9597;SDS011;4837;50.890;4.724;2023-03-11T04:20:26;4.63;;;3.00;;
9597;SDS011;4837;50.890;4.724;2023-03-11T04:22:52;8.87;;;3.27;;
9597;SDS011;4837;50.890;4.724;2023-03-11T04:25:18;5.93;;;3.33;;
9597;SDS011;4837;50.890;4.724;2023-03-11T04:27:44;9.00;;;3.40;;
9597;SDS011;4837;50.890;4.724;2023-03-11T04:30:14;5.93;;;3.53;;
9597;SDS011;4837;50.890;4.724;2023-03-11T04:32:40;10.47;;;3.60;;
9597;SDS011;4837;50.890;4.724;2023-03-11T04:35:07;11.10;;;3.87;;
9597;SDS011;4837;50.890;4.724;2023-03-11T04:37:33;6.30;;;3.60;;
9597;SDS011;4837;50.890;4.724;2023-03-11T04:39:59;7.43;;;3.70;;
9597;SDS011;4837;50.890;4.724;2023-03-11T04:42:25;10.13;;;4.17;;
9597;SDS011;4837;50.890;4.724;2023-03-11T04:44:52;12.07;;;3.70;;
9597;SDS011;4837;50.890;4.724;2023-03-11T04:47:18;7.93;;;3.67;;
9597;SDS011;4837;50.890;4.724;2023-03-11T04:49:45;12.03;;;4.73;;
9597;SDS011;4837;50.890;4.724;2023-03-11T04:52:11;7.93;;;3.60;;
9597;SDS011;4837;50.890;4.724;2023-03-11T04:54:38;9.53;;;3.90;;
9597;SDS011;4837;50.890;4.724;2023-03-11T04:57:04;7.33;;;3.70;;
9597;SDS011;4837;50.890;4.724;2023-03-11T04:59:30;7.47;;;4.27;;
9597;SDS011;4837;50.890;4.724;2023-03-11T05:01:56;11.33;;;4.60;;
9597;SDS011;4837;50.890;4.724;2023-03-11T05:04:22;8.87;;;4.20;;
9597;SDS011;4837;50.890;4.724;2023-03-11T05:06:48;8.93;;;3.90;;
9597;SDS011;4837;50.890;4.724;2023-03-11T05:09:17;8.33;;;3.67;;
9597;SDS011;4837;50.890;4.724;2023-03-11T05:11:43;8.63;;;3.90;;
9597;SDS011;4837;50.890;4.724;2023-03-11T05:14:09;8.50;;;3.77;;
9597;SDS011;4837;50.890;4.724;2023-03-11T05:16:35;7.13;;;3.50;;
9597;SDS011;4837;50.890;4.724;2023-03-11T05:19:02;11.50;;;4.13;;
9597;SDS011;4837;50.890;4.724;2023-03-11T05:21:48;8.97;;;3.80;;
9597;SDS011;4837;50.890;4.724;2023-03-11T05:24:14;9.27;;;3.83;;
9597;SDS011;4837;50.890;4.724;2023-03-11T05:26:40;7.10;;;3.77;;
9597;SDS011;4837;50.890;4.724;2023-03-11T05:29:06;8.17;;;3.90;;
9597;SDS011;4837;50.890;4.724;2023-03-11T05:31:32;11.10;;;3.83;;
9597;SDS011;4837;50.890;4.724;2023-03-11T05:33:58;9.10;;;3.80;;
9597;SDS011;4837;50.890;4.724;2023-03-11T05:36:24;9.73;;;3.70;;
9597;SDS011;4837;50.890;4.724;2023-03-11T05:38:50;6.93;;;3.83;;
9597;SDS011;4837;50.890;4.724;2023-03-11T05:41:17;6.00;;;3.93;;
9597;SDS011;4837;50.890;4.724;2023-03-11T05:43:43;7.43;;;3.90;;
9597;SDS011;4837;50.890;4.724;2023-03-11T05:46:10;10.63;;;4.53;;
9597;SDS011;4837;50.890;4.724;2023-03-11T05:48:36;9.80;;;3.97;;
9597;SDS011;4837;50.890;4.724;2023-03-11T05:51:09;8.37;;;3.90;;
9597;SDS011;4837;50.890;4.724;2023-03-11T05:53:35;7.57;;;4.17;;
9597;SDS011;4837;50.890;4.724;2023-03-11T05:56:02;8.50;;;4.37;;
9597;SDS011;4837;50.890;4.724;2023-03-11T05:58:28;8.37;;;3.73;;
9597;SDS011;4837;50.890;4.724;2023-03-11T06:00:55;6.67;;;4.17;;
9597;SDS011;4837;50.890;4.724;2023-03-11T06:03:21;6.70;;;4.37;;
9597;SDS011;4837;50.890;4.724;2023-03-11T06:05:48;10.77;;;4.80;;
9597;SDS011;4837;50.890;4.724;2023-03-11T06:08:14;7.57;;;4.60;;
9597;SDS011;4837;50.890;4.724;2023-03-11T06:10:40;10.70;;;4.77;;
9597;SDS011;4837;50.890;4.724;2023-03-11T06:13:07;10.27;;;5.00;;
9597;SDS011;4837;50.890;4.724;2023-03-11T06:15:33;9.17;;;4.73;;
9597;SDS011;4837;50.890;4.724;2023-03-11T06:17:59;7.80;;;4.63;;
9597;SDS011;4837;50.890;4.724;2023-03-11T06:20:25;10.67;;;4.63;;
9597;SDS011;4837;50.890;4.724;2023-03-11T06:22:51;10.20;;;5.00;;
9597;SDS011;4837;50.890;4.724;2023-03-11T06:25:18;11.13;;;4.90;;
9597;SDS011;4837;50.890;4.724;2023-03-11T06:27:47;7.80;;;4.97;;
9597;SDS011;4837;50.890;4.724;2023-03-11T06:30:15;12.30;;;5.07;;
9597;SDS011;4837;50.890;4.724;2023-03-11T06:32:45;9.03;;;4.73;;
9597;SDS011;4837;50.890;4.724;2023-03-11T06:35:11;7.73;;;5.20;;
9597;SDS011;4837;50.890;4.724;2023-03-11T06:37:38;10.70;;;5.33;;
9597;SDS011;4837;50.890;4.724;2023-03-11T06:40:05;14.37;;;5.20;;
9597;SDS011;4837;50.890;4.724;2023-03-11T06:42:32;8.30;;;5.60;;
9597;SDS011;4837;50.890;4.724;2023-03-11T06:44:58;14.90;;;5.80;;
9597;SDS011;4837;50.890;4.724;2023-03-11T06:47:24;10.40;;;5.53;;
9597;SDS011;4837;50.890;4.724;2023-03-11T06:49:50;8.93;;;5.83;;
9597;SDS011;4837;50.890;4.724;2023-03-11T06:52:16;9.00;;;5.70;;
9597;SDS011;4837;50.890;4.724;2023-03-11T06:54:43;11.47;;;5.50;;
9597;SDS011;4837;50.890;4.724;2023-03-11T06:57:09;10.77;;;5.40;;
9597;SDS011;4837;50.890;4.724;2023-03-11T06:59:35;10.03;;;5.53;;
9597;SDS011;4837;50.890;4.724;2023-03-11T07:02:02;11.33;;;5.60;;
9597;SDS011;4837;50.890;4.724;2023-03-11T07:04:29;15.17;;;6.13;;
9597;SDS011;4837;50.890;4.724;2023-03-11T07:06:55;9.40;;;5.43;;
9597;SDS011;4837;50.890;4.724;2023-03-11T07:09:22;10.20;;;6.00;;
9597;SDS011;4837;50.890;4.724;2023-03-11T07:11:49;12.33;;;5.57;;
9597;SDS011;4837;50.890;4.724;2023-03-11T07:14:16;9.77;;;5.83;;
9597;SDS011;4837;50.890;4.724;2023-03-11T07:16:42;13.80;;;6.17;;
9597;SDS011;4837;50.890;4.724;2023-03-11T07:19:09;12.83;;;7.17;;
9597;SDS011;4837;50.890;4.724;2023-03-11T07:21:35;12.97;;;7.13;;
9597;SDS011;4837;50.890;4.724;2023-03-11T07:24:01;15.27;;;6.23;;
9597;SDS011;4837;50.890;4.724;2023-03-11T07:26:29;12.50;;;6.13;;
9597;SDS011;4837;50.890;4.724;2023-03-11T07:28:55;10.90;;;6.40;;
9597;SDS011;4837;50.890;4.724;2023-03-11T07:31:26;13.23;;;6.07;;
9597;SDS011;4837;50.890;4.724;2023-03-11T07:33:53;10.77;;;6.33;;
9597;SDS011;4837;50.890;4.724;2023-03-11T07:36:20;13.73;;;6.17;;
9597;SDS011;4837;50.890;4.724;2023-03-11T07:38:47;11.37;;;5.83;;
9597;SDS011;4837;50.890;4.724;2023-03-11T07:41:13;15.37;;;6.27;;
9597;SDS011;4837;50.890;4.724;2023-03-11T07:43:42;11.83;;;5.43;;
9597;SDS011;4837;50.890;4.724;2023-03-11T07:48:35;11.70;;;6.33;;
9597;SDS011;4837;50.890;4.724;2023-03-11T07:51:11;14.13;;;6.10;;
9597;SDS011;4837;50.890;4.724;2023-03-11T07:53:38;8.40;;;5.70;;
9597;SDS011;4837;50.890;4.724;2023-03-11T07:56:05;12.80;;;5.87;;
9597;SDS011;4837;50.890;4.724;2023-03-11T07:58:31;15.97;;;6.20;;
9597;SDS011;4837;50.890;4.724;2023-03-11T08:01:08;10.77;;;6.40;;
9597;SDS011;4837;50.890;4.724;2023-03-11T08:03:35;7.17;;;5.50;;
9597;SDS011;4837;50.890;4.724;2023-03-11T08:06:01;11.17;;;6.27;;
9597;SDS011;4837;50.890;4.724;2023-03-11T08:08:28;10.83;;;6.20;;
9597;SDS011;4837;50.890;4.724;2023-03-11T08:10:54;13.37;;;6.07;;
9597;SDS011;4837;50.890;4.724;2023-03-11T08:13:20;8.83;;;6.00;;
9597;SDS011;4837;50.890;4.724;2023-03-11T08:15:46;9.23;;;5.83;;
9597;SDS011;4837;50.890;4.724;2023-03-11T08:18:12;11.17;;;6.00;;
9597;SDS011;4837;50.890;4.724;2023-03-11T08:20:39;14.00;;;6.20;;
9597;SDS011;4837;50.890;4.724;2023-03-11T08:23:05;11.57;;;5.77;;
9597;SDS011;4837;50.890;4.724;2023-03-11T08:25:31;11.40;;;5.97;;
9597;SDS011;4837;50.890;4.724;2023-03-11T08:27:57;9.73;;;5.83;;
9597;SDS011;4837;50.890;4.724;2023-03-11T08:30:23;11.57;;;6.30;;
9597;SDS011;4837;50.890;4.724;2023-03-11T08:32:49;11.47;;;5.43;;
9597;SDS011;4837;50.890;4.724;2023-03-11T08:35:15;10.63;;;5.13;;
9597;SDS011;4837;50.890;4.724;2023-03-11T08:37:42;10.60;;;5.43;;
9597;SDS011;4837;50.890;4.724;2023-03-11T08:40:08;8.80;;;5.30;;
9597;SDS011;4837;50.890;4.724;2023-03-11T08:42:35;9.10;;;5.00;;
9597;SDS011;4837;50.890;4.724;2023-03-11T08:45:01;8.23;;;4.80;;
9597;SDS011;4837;50.890;4.724;2023-03-11T08:47:27;9.60;;;4.70;;
9597;SDS011;4837;50.890;4.724;2023-03-11T08:49:53;8.77;;;3.30;;
9597;SDS011;4837;50.890;4.724;2023-03-11T08:52:19;5.13;;;3.20;;
9597;SDS011;4837;50.890;4.724;2023-03-11T08:54:46;5.93;;;3.40;;
9597;SDS011;4837;50.890;4.724;2023-03-11T08:57:12;6.25;;;3.13;;
9597;SDS011;4837;50.890;4.724;2023-03-11T08:59:38;6.10;;;3.20;;
9597;SDS011;4837;50.890;4.724;2023-03-11T09:02:04;5.28;;;2.80;;
9597;SDS011;4837;50.890;4.724;2023-03-11T09:04:30;5.68;;;2.97;;
9597;SDS011;4837;50.890;4.724;2023-03-11T09:06:57;8.68;;;3.35;;
9597;SDS011;4837;50.890;4.724;2023-03-11T09:09:23;6.03;;;2.75;;
9597;SDS011;4837;50.890;4.724;2023-03-11T09:11:49;8.95;;;2.45;;
9597;SDS011;4837;50.890;4.724;2023-03-11T09:14:15;7.28;;;2.78;;
9597;SDS011;4837;50.890;4.724;2023-03-11T09:16:41;6.93;;;2.65;;
9597;SDS011;4837;50.890;4.724;2023-03-11T09:19:08;8.60;;;2.70;;
9597;SDS011;4837;50.890;4.724;2023-03-11T09:35:37;3.80;;;1.90;;
9597;SDS011;4837;50.890;4.724;2023-03-11T09:38:04;2.05;;;1.00;;
9597;SDS011;4837;50.890;4.724;2023-03-11T09:40:39;4.22;;;1.35;;
9597;SDS011;4837;50.890;4.724;2023-03-11T09:43:18;1.77;;;1.02;;
9597;SDS011;4837;50.890;4.724;2023-03-11T09:48:48;4.43;;;1.60;;
9597;SDS011;4837;50.890;4.724;2023-03-11T09:51:21;5.30;;;1.63;;
9597;SDS011;4837;50.890;4.724;2023-03-11T09:53:50;3.35;;;1.58;;
9597;SDS011;4837;50.890;4.724;2023-03-11T09:56:20;4.63;;;1.52;;
9597;SDS011;4837;50.890;4.724;2023-03-11T09:58:50;8.05;;;1.75;;
9597;SDS011;4837;50.890;4.724;2023-03-11T10:01:20;5.57;;;1.50;;
9597;SDS011;4837;50.890;4.724;2023-03-11T10:03:47;4.68;;;1.48;;
9597;SDS011;4837;50.890;4.724;2023-03-11T10:06:16;4.40;;;1.70;;
9597;SDS011;4837;50.890;4.724;2023-03-11T10:08:44;5.78;;;1.80;;
9597;SDS011;4837;50.890;4.724;2023-03-11T10:26:54;3.97;;;1.55;;
9597;SDS011;4837;50.890;4.724;2023-03-11T10:29:25;4.32;;;1.65;;
9597;SDS011;4837;50.890;4.724;2023-03-11T10:39:11;4.60;;;1.42;;
9597;SDS011;4837;50.890;4.724;2023-03-11T10:41:46;3.92;;;1.60;;
9597;SDS011;4837;50.890;4.724;2023-03-11T10:44:15;5.22;;;1.67;;
9597;SDS011;4837;50.890;4.724;2023-03-11T10:46:44;3.75;;;1.48;;
9597;SDS011;4837;50.890;4.724;2023-03-11T10:49:12;4.40;;;1.35;;
9597;SDS011;4837;50.890;4.724;2023-03-11T10:51:39;5.68;;;1.80;;
9597;SDS011;4837;50.890;4.724;2023-03-11T10:54:06;3.22;;;1.40;;
9597;SDS011;4837;50.890;4.724;2023-03-11T10:56:36;5.15;;;1.77;;
9597;SDS011;4837;50.890;4.724;2023-03-11T10:59:05;3.75;;;1.50;;
9597;SDS011;4837;50.890;4.724;2023-03-11T11:01:31;4.30;;;1.67;;
9597;SDS011;4837;50.890;4.724;2023-03-11T11:03:58;2.90;;;1.38;;
9597;SDS011;4837;50.890;4.724;2023-03-11T11:06:27;4.72;;;1.40;;
9597;SDS011;4837;50.890;4.724;2023-03-11T11:11:38;3.47;;;1.48;;
9597;SDS011;4837;50.890;4.724;2023-03-11T11:14:05;5.10;;;1.48;;
9597;SDS011;4837;50.890;4.724;2023-03-11T11:16:31;3.58;;;1.20;;
9597;SDS011;4837;50.890;4.724;2023-03-11T11:19:03;3.53;;;1.60;;
9597;SDS011;4837;50.890;4.724;2023-03-11T11:21:37;5.25;;;1.67;;
9597;SDS011;4837;50.890;4.724;2023-03-11T11:24:25;5.20;;;1.70;;
9597;SDS011;4837;50.890;4.724;2023-03-11T11:29:28;5.32;;;1.90;;
9597;SDS011;4837;50.890;4.724;2023-03-11T11:31:54;3.05;;;1.50;;
9597;SDS011;4837;50.890;4.724;2023-03-11T11:34:34;3.75;;;1.60;;
9597;SDS011;4837;50.890;4.724;2023-03-11T11:37:02;5.23;;;1.57;;
9597;SDS011;4837;50.890;4.724;2023-03-11T11:39:35;2.28;;;1.27;;
9597;SDS011;4837;50.890;4.724;2023-03-11T11:42:07;2.83;;;1.45;;
9597;SDS011;4837;50.890;4.724;2023-03-11T11:44:34;3.05;;;1.55;;
9597;SDS011;4837;50.890;4.724;2023-03-11T11:47:03;4.82;;;1.83;;
9597;SDS011;4837;50.890;4.724;2023-03-11T11:49:34;3.40;;;1.48;;
9597;SDS011;4837;50.890;4.724;2023-03-11T11:57:10;3.45;;;1.50;;
9597;SDS011;4837;50.890;4.724;2023-03-11T11:59:36;3.13;;;1.67;;
9597;SDS011;4837;50.890;4.724;2023-03-11T12:02:45;2.47;;;1.25;;
9597;SDS011;4837;50.890;4.724;2023-03-11T12:07:46;5.22;;;1.20;;
9597;SDS011;4837;50.890;4.724;2023-03-11T12:10:26;6.07;;;1.55;;
9597;SDS011;4837;50.890;4.724;2023-03-11T12:15:40;5.30;;;1.30;;
9597;SDS011;4837;50.890;4.724;2023-03-11T12:18:12;4.82;;;1.40;;
9597;SDS011;4837;50.890;4.724;2023-03-11T12:20:45;7.47;;;1.45;;
9597;SDS011;4837;50.890;4.724;2023-03-11T12:31:12;7.55;;;1.95;;
9597;SDS011;4837;50.890;4.724;2023-03-11T12:36:04;3.90;;;1.73;;
9597;SDS011;4837;50.890;4.724;2023-03-11T12:38:38;4.32;;;1.30;;
9597;SDS011;4837;50.890;4.724;2023-03-11T12:41:06;4.35;;;1.40;;
9597;SDS011;4837;50.890;4.724;2023-03-11T12:46:16;4.20;;;2.03;;
9597;SDS011;4837;50.890;4.724;2023-03-11T12:53:53;5.32;;;1.73;;
9597;SDS011;4837;50.890;4.724;2023-03-11T12:57:22;5.20;;;1.50;;
9597;SDS011;4837;50.890;4.724;2023-03-11T13:04:38;2.70;;;1.45;;
9597;SDS011;4837;50.890;4.724;2023-03-11T13:12:46;5.40;;;1.67;;
9597;SDS011;4837;50.890;4.724;2023-03-11T13:18:46;4.53;;;1.70;;
9597;SDS011;4837;50.890;4.724;2023-03-11T13:23:08;2.88;;;1.50;;
9597;SDS011;4837;50.890;4.724;2023-03-11T13:36:35;1.95;;;1.13;;
9597;SDS011;4837;50.890;4.724;2023-03-11T13:39:16;3.28;;;1.48;;
9597;SDS011;4837;50.890;4.724;2023-03-11T13:41:44;5.32;;;1.15;;
9597;SDS011;4837;50.890;4.724;2023-03-11T13:46:44;4.10;;;1.23;;
9597;SDS011;4837;50.890;4.724;2023-03-11T13:51:55;2.05;;;1.08;;
9597;SDS011;4837;50.890;4.724;2023-03-11T13:59:51;5.28;;;1.40;;
9597;SDS011;4837;50.890;4.724;2023-03-11T14:02:18;8.38;;;1.30;;
9597;SDS011;4837;50.890;4.724;2023-03-11T14:04:56;2.65;;;1.10;;
9597;SDS011;4837;50.890;4.724;2023-03-11T14:07:29;2.47;;;1.20;;
9597;SDS011;4837;50.890;4.724;2023-03-11T14:13:13;3.75;;;1.55;;
9597;SDS011;4837;50.890;4.724;2023-03-11T14:15:50;3.22;;;1.63;;
9597;SDS011;4837;50.890;4.724;2023-03-11T14:20:49;4.25;;;1.70;;
9597;SDS011;4837;50.890;4.724;2023-03-11T14:23:16;2.97;;;1.80;;
9597;SDS011;4837;50.890;4.724;2023-03-11T14:25:43;3.03;;;1.55;;
9597;SDS011;4837;50.890;4.724;2023-03-11T14:28:17;2.63;;;1.30;;
9597;SDS011;4837;50.890;4.724;2023-03-11T14:30:54;5.50;;;1.40;;
9597;SDS011;4837;50.890;4.724;2023-03-11T14:33:20;2.65;;;1.35;;
9597;SDS011;4837;50.890;4.724;2023-03-11T14:35:54;3.00;;;1.10;;
9597;SDS011;4837;50.890;4.724;2023-03-11T14:38:21;3.88;;;1.50;;
9597;SDS011;4837;50.890;4.724;2023-03-11T14:40:57;5.18;;;1.40;;
9597;SDS011;4837;50.890;4.724;2023-03-11T14:43:24;2.58;;;1.50;;
9597;SDS011;4837;50.890;4.724;2023-03-11T14:45:51;2.45;;;1.25;;
9597;SDS011;4837;50.890;4.724;2023-03-11T14:48:23;4.38;;;1.30;;
9597;SDS011;4837;50.890;4.724;2023-03-11T14:50:51;3.90;;;1.10;;
9597;SDS011;4837;50.890;4.724;2023-03-11T14:53:20;2.38;;;1.30;;
9597;SDS011;4837;50.890;4.724;2023-03-11T14:56:00;5.78;;;1.17;;
9597;SDS011;4837;50.890;4.724;2023-03-11T14:58:29;2.97;;;1.30;;
9597;SDS011;4837;50.890;4.724;2023-03-11T15:03:32;4.80;;;1.45;;
9597;SDS011;4837;50.890;4.724;2023-03-11T15:08:26;2.30;;;1.58;;
9597;SDS011;4837;50.890;4.724;2023-03-11T15:11:04;3.05;;;1.30;;
9597;SDS011;4837;50.890;4.724;2023-03-11T15:13:31;2.92;;;1.20;;
9597;SDS011;4837;50.890;4.724;2023-03-11T15:15:58;4.60;;;1.38;;
9597;SDS011;4837;50.890;4.724;2023-03-11T15:18:27;5.53;;;1.48;;
9597;SDS011;4837;50.890;4.724;2023-03-11T15:23:37;5.45;;;1.20;;
9597;SDS011;4837;50.890;4.724;2023-03-11T15:26:04;4.10;;;1.73;;
9597;SDS011;4837;50.890;4.724;2023-03-11T15:28:31;3.45;;;1.17;;
9597;SDS011;4837;50.890;4.724;2023-03-11T15:31:25;3.30;;;1.30;;
9597;SDS011;4837;50.890;4.724;2023-03-11T15:34:06;6.28;;;1.60;;
9597;SDS011;4837;50.890;4.724;2023-03-11T15:36:36;3.60;;;1.60;;
9597;SDS011;4837;50.890;4.724;2023-03-11T15:41:38;5.18;;;1.27;;
9597;SDS011;4837;50.890;4.724;2023-03-11T15:44:04;6.53;;;1.63;;
9597;SDS011;4837;50.890;4.724;2023-03-11T15:46:32;4.57;;;1.58;;
9597;SDS011;4837;50.890;4.724;2023-03-11T15:48:58;3.17;;;1.20;;
9597;SDS011;4837;50.890;4.724;2023-03-11T15:51:24;5.90;;;1.60;;
9597;SDS011;4837;50.890;4.724;2023-03-11T15:53:50;4.40;;;1.30;;
9597;SDS011;4837;50.890;4.724;2023-03-11T15:56:19;5.23;;;1.40;;
9597;SDS011;4837;50.890;4.724;2023-03-11T15:58:47;4.60;;;1.33;;
9597;SDS011;4837;50.890;4.724;2023-03-11T16:01:13;5.03;;;1.37;;
9597;SDS011;4837;50.890;4.724;2023-03-11T16:03:39;4.63;;;1.50;;
9597;SDS011;4837;50.890;4.724;2023-03-11T16:06:05;3.78;;;1.52;;
9597;SDS011;4837;50.890;4.724;2023-03-11T16:08:31;5.35;;;1.40;;
9597;SDS011;4837;50.890;4.724;2023-03-11T16:10:58;7.78;;;2.13;;
9597;SDS011;4837;50.890;4.724;2023-03-11T16:13:24;5.93;;;1.65;;
9597;SDS011;4837;50.890;4.724;2023-03-11T16:15:50;5.30;;;1.80;;
9597;SDS011;4837;50.890;4.724;2023-03-11T16:18:17;5.60;;;1.58;;
9597;SDS011;4837;50.890;4.724;2023-03-11T16:20:45;2.47;;;1.40;;
9597;SDS011;4837;50.890;4.724;2023-03-11T16:23:17;6.07;;;1.50;;
9597;SDS011;4837;50.890;4.724;2023-03-11T16:25:44;6.38;;;1.75;;
9597;SDS011;4837;50.890;4.724;2023-03-11T16:28:15;3.58;;;1.70;;
9597;SDS011;4837;50.890;4.724;2023-03-11T16:30:42;2.55;;;1.55;;
9597;SDS011;4837;50.890;4.724;2023-03-11T16:33:08;2.97;;;1.60;;
9597;SDS011;4837;50.890;4.724;2023-03-11T16:35:34;8.43;;;1.70;;
9597;SDS011;4837;50.890;4.724;2023-03-11T16:38:00;7.60;;;1.75;;
9597;SDS011;4837;50.890;4.724;2023-03-11T16:40:27;4.60;;;2.00;;
9597;SDS011;4837;50.890;4.724;2023-03-11T16:42:54;5.95;;;2.08;;
9597;SDS011;4837;50.890;4.724;2023-03-11T16:45:22;5.50;;;1.87;;
9597;SDS011;4837;50.890;4.724;2023-03-11T16:47:48;3.03;;;1.60;;
9597;SDS011;4837;50.890;4.724;2023-03-11T16:50:14;4.03;;;1.77;;
9597;SDS011;4837;50.890;4.724;2023-03-11T16:52:40;4.63;;;1.93;;
9597;SDS011;4837;50.890;4.724;2023-03-11T16:55:06;3.97;;;2.40;;
9597;SDS011;4837;50.890;4.724;2023-03-11T16:57:33;4.03;;;2.03;;
9597;SDS011;4837;50.890;4.724;2023-03-11T16:59:59;5.53;;;2.17;;
9597;SDS011;4837;50.890;4.724;2023-03-11T17:02:26;5.32;;;2.25;;
9597;SDS011;4837;50.890;4.724;2023-03-11T17:04:52;4.70;;;1.70;;
9597;SDS011;4837;50.890;4.724;2023-03-11T17:07:18;5.87;;;2.20;;
9597;SDS011;4837;50.890;4.724;2023-03-11T17:09:44;7.20;;;2.20;;
9597;SDS011;4837;50.890;4.724;2023-03-11T17:12:10;4.33;;;2.00;;
9597;SDS011;4837;50.890;4.724;2023-03-11T17:14:39;6.23;;;2.13;;
9597;SDS011;4837;50.890;4.724;2023-03-11T17:17:06;4.30;;;1.90;;
9597;SDS011;4837;50.890;4.724;2023-03-11T17:19:32;8.57;;;2.00;;
9597;SDS011;4837;50.890;4.724;2023-03-11T17:21:58;4.47;;;2.10;;
9597;SDS011;4837;50.890;4.724;2023-03-11T17:24:24;6.40;;;1.97;;
9597;SDS011;4837;50.890;4.724;2023-03-11T17:26:50;5.18;;;2.30;;
9597;SDS011;4837;50.890;4.724;2023-03-11T17:29:16;4.73;;;2.17;;
9597;SDS011;4837;50.890;4.724;2023-03-11T17:31:43;5.50;;;2.10;;
9597;SDS011;4837;50.890;4.724;2023-03-11T17:34:09;6.30;;;2.33;;
9597;SDS011;4837;50.890;4.724;2023-03-11T17:36:35;5.13;;;2.45;;
9597;SDS011;4837;50.890;4.724;2023-03-11T17:39:01;7.70;;;2.80;;